sensor_id;sensor_type;location;lat;lon;timestamp;temperature;humidity
36690;DHT22;22676;51.120;3.702;2023-02-24T00:01:11;24.80;41.30
36690;DHT22;22676;51.120;3.702;2023-02-24T00:03:38;24.80;40.80
36690;DHT22;22676;51.120;3.702;2023-02-24T00:06:04;25.00;40.10
36690;DHT22;22676;51.120;3.702;2023-02-24T00:08:39;25.10;39.70
36690;DHT22;22676;51.120;3.702;2023-02-24T00:11:12;25.10;39.90
36690;DHT22;22676;51.120;3.702;2023-02-24T00:13:39;24.90;40.70
36690;DHT22;22676;51.120;3.702;2023-02-24T00:16:04;24.90;40.30
36690;DHT22;22676;51.120;3.702;2023-02-24T00:18:31;24.90;40.30
36690;DHT22;22676;51.120;3.702;2023-02-24T00:21:04;24.80;40.40
36690;DHT22;22676;51.120;3.702;2023-02-24T00:23:33;24.70;40.50
36690;DHT22;22676;51.120;3.702;2023-02-24T00:26:00;24.70;40.60
36690;DHT22;22676;51.120;3.702;2023-02-24T00:28:27;24.70;40.60
36690;DHT22;22676;51.120;3.702;2023-02-24T00:30:53;24.70;40.70
36690;DHT22;22676;51.120;3.702;2023-02-24T00:33:20;24.60;40.70
36690;DHT22;22676;51.120;3.702;2023-02-24T00:35:48;24.50;40.90
36690;DHT22;22676;51.120;3.702;2023-02-24T00:38:14;24.40;41.00
36690;DHT22;22676;51.120;3.702;2023-02-24T00:40:39;24.40;41.10
36690;DHT22;22676;51.120;3.702;2023-02-24T00:43:06;24.30;41.20
36690;DHT22;22676;51.120;3.702;2023-02-24T00:45:36;24.20;41.30
36690;DHT22;22676;51.120;3.702;2023-02-24T00:48:04;24.30;41.30
36690;DHT22;22676;51.120;3.702;2023-02-24T00:50:29;24.20;41.30
36690;DHT22;22676;51.120;3.702;2023-02-24T00:52:55;24.20;41.30
36690;DHT22;22676;51.120;3.702;2023-02-24T00:55:21;24.20;41.40
36690;DHT22;22676;51.120;3.702;2023-02-24T00:57:48;24.10;41.50
36690;DHT22;22676;51.120;3.702;2023-02-24T01:00:16;24.10;41.50
36690;DHT22;22676;51.120;3.702;2023-02-24T01:02:44;24.20;41.50
36690;DHT22;22676;51.120;3.702;2023-02-24T01:05:11;24.50;40.50
36690;DHT22;22676;51.120;3.702;2023-02-24T01:07:37;24.60;39.70
36690;DHT22;22676;51.120;3.702;2023-02-24T01:10:03;24.60;39.70
36690;DHT22;22676;51.120;3.702;2023-02-24T01:12:29;24.60;39.80
36690;DHT22;22676;51.120;3.702;2023-02-24T01:15:14;24.50;40.10
36690;DHT22;22676;51.120;3.702;2023-02-24T01:17:40;24.60;40.20
36690;DHT22;22676;51.120;3.702;2023-02-24T01:20:09;24.50;40.20
36690;DHT22;22676;51.120;3.702;2023-02-24T01:22:46;24.50;40.10
36690;DHT22;22676;51.120;3.702;2023-02-24T01:25:12;24.50;40.20
36690;DHT22;22676;51.120;3.702;2023-02-24T01:27:38;24.30;40.40
36690;DHT22;22676;51.120;3.702;2023-02-24T01:30:08;24.40;40.50
36690;DHT22;22676;51.120;3.702;2023-02-24T01:32:38;24.30;40.60
36690;DHT22;22676;51.120;3.702;2023-02-24T01:35:03;24.30;40.70
36690;DHT22;22676;51.120;3.702;2023-02-24T01:37:29;24.20;40.60
36690;DHT22;22676;51.120;3.702;2023-02-24T01:39:55;24.20;40.60
36690;DHT22;22676;51.120;3.702;2023-02-24T01:42:20;24.20;40.60
36690;DHT22;22676;51.120;3.702;2023-02-24T01:47:12;24.20;40.80
36690;DHT22;22676;51.120;3.702;2023-02-24T01:49:42;24.20;40.70
36690;DHT22;22676;51.120;3.702;2023-02-24T01:52:14;24.20;40.70
36690;DHT22;22676;51.120;3.702;2023-02-24T01:57:31;24.20;40.70
36690;DHT22;22676;51.120;3.702;2023-02-24T01:59:57;24.10;40.90
36690;DHT22;22676;51.120;3.702;2023-02-24T02:02:35;24.00;41.00
36690;DHT22;22676;51.120;3.702;2023-02-24T02:05:04;24.30;40.20
36690;DHT22;22676;51.120;3.702;2023-02-24T02:07:30;24.40;39.50
36690;DHT22;22676;51.120;3.702;2023-02-24T02:09:56;24.30;39.80
36690;DHT22;22676;51.120;3.702;2023-02-24T02:12:24;24.40;39.70
36690;DHT22;22676;51.120;3.702;2023-02-24T02:14:51;24.30;39.80
36690;DHT22;22676;51.120;3.702;2023-02-24T02:25:25;24.10;40.30
36690;DHT22;22676;51.120;3.702;2023-02-24T02:36:20;23.90;40.50
36690;DHT22;22676;51.120;3.702;2023-02-24T02:41:46;24.00;40.60
36690;DHT22;22676;51.120;3.702;2023-02-24T02:44:22;24.00;40.50
36690;DHT22;22676;51.120;3.702;2023-02-24T02:46:57;24.00;40.40
36690;DHT22;22676;51.120;3.702;2023-02-24T02:49:31;24.00;40.50
36690;DHT22;22676;51.120;3.702;2023-02-24T02:52:05;24.00;40.50
36690;DHT22;22676;51.120;3.702;2023-02-24T02:54:38;24.00;40.50
36690;DHT22;22676;51.120;3.702;2023-02-24T02:59:55;23.80;40.60
36690;DHT22;22676;51.120;3.702;2023-02-24T03:02:22;24.00;40.50
36690;DHT22;22676;51.120;3.702;2023-02-24T03:04:54;24.10;39.80
36690;DHT22;22676;51.120;3.702;2023-02-24T03:07:22;24.20;39.30
36690;DHT22;22676;51.120;3.702;2023-02-24T03:09:52;24.10;39.20
36690;DHT22;22676;51.120;3.702;2023-02-24T03:12:21;24.10;39.50
36690;DHT22;22676;51.120;3.702;2023-02-24T03:14:48;24.00;39.70
36690;DHT22;22676;51.120;3.702;2023-02-24T03:17:17;24.00;39.80
36690;DHT22;22676;51.120;3.702;2023-02-24T03:19:45;24.00;39.70
36690;DHT22;22676;51.120;3.702;2023-02-24T03:22:20;24.00;40.00
36690;DHT22;22676;51.120;3.702;2023-02-24T03:24:49;24.20;39.70
36690;DHT22;22676;51.120;3.702;2023-02-24T03:28:17;24.10;39.60
36690;DHT22;22676;51.120;3.702;2023-02-24T03:32:39;23.90;40.00
36690;DHT22;22676;51.120;3.702;2023-02-24T03:37:41;23.80;40.30
36690;DHT22;22676;51.120;3.702;2023-02-24T03:40:07;23.70;40.30
36690;DHT22;22676;51.120;3.702;2023-02-24T03:42:58;23.70;40.40
36690;DHT22;22676;51.120;3.702;2023-02-24T03:45:30;23.60;40.40
36690;DHT22;22676;51.120;3.702;2023-02-24T03:47:55;23.50;40.40
36690;DHT22;22676;51.120;3.702;2023-02-24T03:50:24;23.60;40.40
36690;DHT22;22676;51.120;3.702;2023-02-24T03:53:07;23.50;40.40
36690;DHT22;22676;51.120;3.702;2023-02-24T03:55:46;23.40;40.60
36690;DHT22;22676;51.120;3.702;2023-02-24T04:01:10;23.40;40.60
36690;DHT22;22676;51.120;3.702;2023-02-24T04:03:40;23.40;40.40
36690;DHT22;22676;51.120;3.702;2023-02-24T04:11:20;23.40;39.30
36690;DHT22;22676;51.120;3.702;2023-02-24T04:13:48;23.40;39.50
36690;DHT22;22676;51.120;3.702;2023-02-24T04:16:16;23.10;40.10
36690;DHT22;22676;51.120;3.702;2023-02-24T04:18:52;23.10;40.40
36690;DHT22;22676;51.120;3.702;2023-02-24T04:21:19;23.10;40.40
36690;DHT22;22676;51.120;3.702;2023-02-24T04:23:46;23.00;40.40
36690;DHT22;22676;51.120;3.702;2023-02-24T04:26:12;23.00;40.50
36690;DHT22;22676;51.120;3.702;2023-02-24T04:28:40;22.90;40.70
36690;DHT22;22676;51.120;3.702;2023-02-24T04:31:08;22.90;40.70
36690;DHT22;22676;51.120;3.702;2023-02-24T04:33:35;22.80;40.70
36690;DHT22;22676;51.120;3.702;2023-02-24T04:36:02;22.90;40.80
36690;DHT22;22676;51.120;3.702;2023-02-24T04:38:29;22.80;40.80
36690;DHT22;22676;51.120;3.702;2023-02-24T04:40:54;22.80;40.80
36690;DHT22;22676;51.120;3.702;2023-02-24T04:43:21;22.80;40.80
36690;DHT22;22676;51.120;3.702;2023-02-24T04:45:47;22.80;40.80
36690;DHT22;22676;51.120;3.702;2023-02-24T04:48:12;22.70;40.80
36690;DHT22;22676;51.120;3.702;2023-02-24T04:50:39;22.70;40.90
36690;DHT22;22676;51.120;3.702;2023-02-24T04:53:15;22.70;40.80
36690;DHT22;22676;51.120;3.702;2023-02-24T04:55:42;22.70;40.80
36690;DHT22;22676;51.120;3.702;2023-02-24T04:58:11;22.60;40.80
36690;DHT22;22676;51.120;3.702;2023-02-24T05:00:37;22.70;40.90
36690;DHT22;22676;51.120;3.702;2023-02-24T05:03:06;22.60;41.00
36690;DHT22;22676;51.120;3.702;2023-02-24T05:05:32;22.50;40.80
36690;DHT22;22676;51.120;3.702;2023-02-24T05:07:58;22.40;40.60
36690;DHT22;22676;51.120;3.702;2023-02-24T05:10:27;22.40;41.00
36690;DHT22;22676;51.120;3.702;2023-02-24T05:12:53;22.40;41.10
36690;DHT22;22676;51.120;3.702;2023-02-24T05:15:22;22.50;40.90
36690;DHT22;22676;51.120;3.702;2023-02-24T05:18:03;22.60;40.70
36690;DHT22;22676;51.120;3.702;2023-02-24T05:20:35;22.70;40.50
36690;DHT22;22676;51.120;3.702;2023-02-24T05:23:23;22.90;40.40
36690;DHT22;22676;51.120;3.702;2023-02-24T05:25:48;22.90;40.20
36690;DHT22;22676;51.120;3.702;2023-02-24T05:28:22;23.00;40.00
36690;DHT22;22676;51.120;3.702;2023-02-24T05:30:48;23.10;39.90
36690;DHT22;22676;51.120;3.702;2023-02-24T05:33:15;23.10;39.90
36690;DHT22;22676;51.120;3.702;2023-02-24T05:35:40;23.20;40.50
36690;DHT22;22676;51.120;3.702;2023-02-24T05:38:06;23.30;39.80
36690;DHT22;22676;51.120;3.702;2023-02-24T05:40:33;23.30;39.70
36690;DHT22;22676;51.120;3.702;2023-02-24T05:42:58;23.40;39.70
36690;DHT22;22676;51.120;3.702;2023-02-24T05:45:28;23.40;39.50
36690;DHT22;22676;51.120;3.702;2023-02-24T05:47:54;23.50;39.60
36690;DHT22;22676;51.120;3.702;2023-02-24T05:50:20;23.50;39.60
36690;DHT22;22676;51.120;3.702;2023-02-24T05:52:51;23.60;39.60
36690;DHT22;22676;51.120;3.702;2023-02-24T05:55:16;23.70;39.60
36690;DHT22;22676;51.120;3.702;2023-02-24T05:57:42;23.70;39.70
36690;DHT22;22676;51.120;3.702;2023-02-24T06:00:08;23.70;39.80
36690;DHT22;22676;51.120;3.702;2023-02-24T06:02:40;23.80;39.60
36690;DHT22;22676;51.120;3.702;2023-02-24T06:05:14;24.00;38.10
36690;DHT22;22676;51.120;3.702;2023-02-24T06:07:50;24.00;37.60
36690;DHT22;22676;51.120;3.702;2023-02-24T06:10:19;24.00;38.80
36690;DHT22;22676;51.120;3.702;2023-02-24T06:12:46;24.00;39.00
36690;DHT22;22676;51.120;3.702;2023-02-24T06:15:12;24.00;39.00
36690;DHT22;22676;51.120;3.702;2023-02-24T06:17:37;24.10;39.00
36690;DHT22;22676;51.120;3.702;2023-02-24T06:20:04;24.20;38.90
36690;DHT22;22676;51.120;3.702;2023-02-24T06:22:38;24.20;38.90
36690;DHT22;22676;51.120;3.702;2023-02-24T06:25:07;24.20;38.90
36690;DHT22;22676;51.120;3.702;2023-02-24T06:27:32;24.20;38.80
36690;DHT22;22676;51.120;3.702;2023-02-24T06:30:01;24.30;38.70
36690;DHT22;22676;51.120;3.702;2023-02-24T06:32:26;24.40;38.90
36690;DHT22;22676;51.120;3.702;2023-02-24T06:34:52;24.30;38.60
36690;DHT22;22676;51.120;3.702;2023-02-24T06:37:18;24.40;38.50
36690;DHT22;22676;51.120;3.702;2023-02-24T06:39:44;24.50;38.50
36690;DHT22;22676;51.120;3.702;2023-02-24T06:42:10;24.50;38.40
36690;DHT22;22676;51.120;3.702;2023-02-24T06:44:36;24.60;38.30
36690;DHT22;22676;51.120;3.702;2023-02-24T06:47:03;24.60;38.30
36690;DHT22;22676;51.120;3.702;2023-02-24T06:49:28;24.60;38.30
36690;DHT22;22676;51.120;3.702;2023-02-24T06:51:54;24.70;38.20
36690;DHT22;22676;51.120;3.702;2023-02-24T06:54:24;24.70;38.20
36690;DHT22;22676;51.120;3.702;2023-02-24T06:56:55;24.70;38.00
36690;DHT22;22676;51.120;3.702;2023-02-24T06:59:22;24.80;38.40
36690;DHT22;22676;51.120;3.702;2023-02-24T07:01:53;24.80;38.80
36690;DHT22;22676;51.120;3.702;2023-02-24T07:04:19;24.80;37.10
36690;DHT22;22676;51.120;3.702;2023-02-24T07:06:46;24.80;36.70
36690;DHT22;22676;51.120;3.702;2023-02-24T07:09:14;24.80;36.90
36690;DHT22;22676;51.120;3.702;2023-02-24T07:11:40;25.00;38.00
36690;DHT22;22676;51.120;3.702;2023-02-24T07:14:06;25.10;37.80
36690;DHT22;22676;51.120;3.702;2023-02-24T07:16:33;25.20;37.90
36690;DHT22;22676;51.120;3.702;2023-02-24T07:19:00;25.20;37.40
36690;DHT22;22676;51.120;3.702;2023-02-24T07:21:27;25.20;37.70
36690;DHT22;22676;51.120;3.702;2023-02-24T07:23:54;25.00;37.90
36690;DHT22;22676;51.120;3.702;2023-02-24T07:26:24;24.90;38.10
36690;DHT22;22676;51.120;3.702;2023-02-24T07:28:50;25.00;38.10
36690;DHT22;22676;51.120;3.702;2023-02-24T07:31:20;24.80;38.20
36690;DHT22;22676;51.120;3.702;2023-02-24T07:33:48;24.80;38.60
36690;DHT22;22676;51.120;3.702;2023-02-24T07:36:16;24.70;38.80
36690;DHT22;22676;51.120;3.702;2023-02-24T07:38:51;24.60;39.00
36690;DHT22;22676;51.120;3.702;2023-02-24T07:41:17;24.50;39.00
36690;DHT22;22676;51.120;3.702;2023-02-24T07:43:47;24.50;39.20
36690;DHT22;22676;51.120;3.702;2023-02-24T07:46:15;24.40;39.30
36690;DHT22;22676;51.120;3.702;2023-02-24T07:48:41;24.30;39.50
36690;DHT22;22676;51.120;3.702;2023-02-24T07:51:07;24.20;39.60
36690;DHT22;22676;51.120;3.702;2023-02-24T07:53:33;24.20;39.70
36690;DHT22;22676;51.120;3.702;2023-02-24T07:55:59;24.10;39.80
36690;DHT22;22676;51.120;3.702;2023-02-24T07:58:25;24.00;39.90
36690;DHT22;22676;51.120;3.702;2023-02-24T08:00:52;24.00;40.10
36690;DHT22;22676;51.120;3.702;2023-02-24T08:03:25;24.00;39.90
36690;DHT22;22676;51.120;3.702;2023-02-24T08:05:54;24.30;39.20
36690;DHT22;22676;51.120;3.702;2023-02-24T08:08:19;24.50;38.50
36690;DHT22;22676;51.120;3.702;2023-02-24T08:10:45;24.30;38.70
36690;DHT22;22676;51.120;3.702;2023-02-24T08:13:11;24.00;39.80
36690;DHT22;22676;51.120;3.702;2023-02-24T08:15:37;23.80;39.60
36690;DHT22;22676;51.120;3.702;2023-02-24T08:18:02;23.80;40.00
36690;DHT22;22676;51.120;3.702;2023-02-24T08:20:29;23.70;40.00
36690;DHT22;22676;51.120;3.702;2023-02-24T08:23:00;23.70;40.00
36690;DHT22;22676;51.120;3.702;2023-02-24T08:25:26;23.60;40.30
36690;DHT22;22676;51.120;3.702;2023-02-24T08:28:00;23.60;40.40
36690;DHT22;22676;51.120;3.702;2023-02-24T08:30:30;23.50;40.50
36690;DHT22;22676;51.120;3.702;2023-02-24T08:33:02;23.50;40.50
36690;DHT22;22676;51.120;3.702;2023-02-24T08:35:29;23.50;40.60
36690;DHT22;22676;51.120;3.702;2023-02-24T08:38:06;23.50;40.70
36690;DHT22;22676;51.120;3.702;2023-02-24T08:40:34;23.50;40.90
36690;DHT22;22676;51.120;3.702;2023-02-24T08:43:04;23.40;40.80
36690;DHT22;22676;51.120;3.702;2023-02-24T08:45:51;23.40;40.90
36690;DHT22;22676;51.120;3.702;2023-02-24T08:48:18;23.60;40.50
36690;DHT22;22676;51.120;3.702;2023-02-24T08:54:00;23.70;40.60
36690;DHT22;22676;51.120;3.702;2023-02-24T08:56:28;23.70;40.40
36690;DHT22;22676;51.120;3.702;2023-02-24T08:58:54;23.60;40.50
36690;DHT22;22676;51.120;3.702;2023-02-24T09:01:23;23.60;40.50
36690;DHT22;22676;51.120;3.702;2023-02-24T09:03:50;23.70;40.30
36690;DHT22;22676;51.120;3.702;2023-02-24T09:06:17;23.80;39.60
36690;DHT22;22676;51.120;3.702;2023-02-24T09:08:50;23.60;39.70
36690;DHT22;22676;51.120;3.702;2023-02-24T09:11:36;23.70;39.60
36690;DHT22;22676;51.120;3.702;2023-02-24T09:14:01;23.70;39.60
36690;DHT22;22676;51.120;3.702;2023-02-24T09:16:29;23.60;39.80
36690;DHT22;22676;51.120;3.702;2023-02-24T09:18:54;23.60;39.90
36690;DHT22;22676;51.120;3.702;2023-02-24T09:21:38;23.60;40.20
36690;DHT22;22676;51.120;3.702;2023-02-24T09:24:13;23.60;40.50
36690;DHT22;22676;51.120;3.702;2023-02-24T09:26:39;23.80;40.20
36690;DHT22;22676;51.120;3.702;2023-02-24T09:29:16;23.80;40.00
36690;DHT22;22676;51.120;3.702;2023-02-24T09:32:13;23.80;40.00
36690;DHT22;22676;51.120;3.702;2023-02-24T09:34:39;24.00;40.20
36690;DHT22;22676;51.120;3.702;2023-02-24T09:37:09;23.80;40.20
36690;DHT22;22676;51.120;3.702;2023-02-24T09:39:51;23.80;40.50
36690;DHT22;22676;51.120;3.702;2023-02-24T09:42:21;24.00;40.30
36690;DHT22;22676;51.120;3.702;2023-02-24T09:44:50;24.10;39.90
36690;DHT22;22676;51.120;3.702;2023-02-24T09:47:22;24.00;39.80
36690;DHT22;22676;51.120;3.702;2023-02-24T09:52:40;23.80;40.40
36690;DHT22;22676;51.120;3.702;2023-02-24T09:58:03;24.10;40.40
36690;DHT22;22676;51.120;3.702;2023-02-24T10:00:49;24.20;39.80
36690;DHT22;22676;51.120;3.702;2023-02-24T10:03:24;24.20;39.70
36690;DHT22;22676;51.120;3.702;2023-02-24T10:06:13;24.30;39.00
36690;DHT22;22676;51.120;3.702;2023-02-24T10:08:40;24.10;39.50
36690;DHT22;22676;51.120;3.702;2023-02-24T10:11:08;24.00;39.70
36690;DHT22;22676;51.120;3.702;2023-02-24T10:13:35;24.00;39.80
36690;DHT22;22676;51.120;3.702;2023-02-24T10:16:02;24.20;39.40
36690;DHT22;22676;51.120;3.702;2023-02-24T10:18:34;24.20;39.50
36690;DHT22;22676;51.120;3.702;2023-02-24T10:23:55;24.10;40.00
36690;DHT22;22676;51.120;3.702;2023-02-24T10:26:28;24.10;40.30
36690;DHT22;22676;51.120;3.702;2023-02-24T10:31:48;24.20;39.70
36690;DHT22;22676;51.120;3.702;2023-02-24T10:34:25;24.30;39.80
36690;DHT22;22676;51.120;3.702;2023-02-24T10:37:29;24.30;39.80
36690;DHT22;22676;51.120;3.702;2023-02-24T10:39:48;24.20;39.90
36690;DHT22;22676;51.120;3.702;2023-02-24T10:42:24;24.10;40.40
36690;DHT22;22676;51.120;3.702;2023-02-24T10:44:50;24.10;41.00
36690;DHT22;22676;51.120;3.702;2023-02-24T10:47:29;24.10;40.60
36690;DHT22;22676;51.120;3.702;2023-02-24T10:49:58;24.20;40.40
36690;DHT22;22676;51.120;3.702;2023-02-24T10:52:34;24.30;40.40
36690;DHT22;22676;51.120;3.702;2023-02-24T10:58:03;24.20;40.60
36690;DHT22;22676;51.120;3.702;2023-02-24T11:00:44;24.20;40.60
36690;DHT22;22676;51.120;3.702;2023-02-24T11:03:25;24.20;39.90
36690;DHT22;22676;51.120;3.702;2023-02-24T11:06:02;24.40;39.60
36690;DHT22;22676;51.120;3.702;2023-02-24T11:08:28;24.40;39.20
36690;DHT22;22676;51.120;3.702;2023-02-24T11:13:48;24.10;39.60
36690;DHT22;22676;51.120;3.702;2023-02-24T11:19:42;23.90;40.20
36690;DHT22;22676;51.120;3.702;2023-02-24T11:22:31;24.00;40.40
36690;DHT22;22676;51.120;3.702;2023-02-24T11:24:54;24.20;40.00
36690;DHT22;22676;51.120;3.702;2023-02-24T11:27:20;24.30;39.70
36690;DHT22;22676;51.120;3.702;2023-02-24T11:29:49;24.20;39.90
36690;DHT22;22676;51.120;3.702;2023-02-24T11:32:24;24.20;39.90
36690;DHT22;22676;51.120;3.702;2023-02-24T11:34:57;24.10;40.40
36690;DHT22;22676;51.120;3.702;2023-02-24T11:37:38;24.20;40.20
36690;DHT22;22676;51.120;3.702;2023-02-24T11:40:11;24.30;40.00
36690;DHT22;22676;51.120;3.702;2023-02-24T11:42:41;24.30;40.10
36690;DHT22;22676;51.120;3.702;2023-02-24T11:47:46;24.10;40.40
36690;DHT22;22676;51.120;3.702;2023-02-24T11:52:38;24.00;40.60
36690;DHT22;22676;51.120;3.702;2023-02-24T11:55:13;24.00;40.60
36690;DHT22;22676;51.120;3.702;2023-02-24T11:57:44;24.10;40.40
36690;DHT22;22676;51.120;3.702;2023-02-24T12:05:26;24.00;39.80
36690;DHT22;22676;51.120;3.702;2023-02-24T12:10:41;23.80;40.00
36690;DHT22;22676;51.120;3.702;2023-02-24T12:18:33;24.00;40.80
36690;DHT22;22676;51.120;3.702;2023-02-24T12:21:04;24.10;40.40
36690;DHT22;22676;51.120;3.702;2023-02-24T12:23:41;24.10;39.90
36690;DHT22;22676;51.120;3.702;2023-02-24T12:26:18;24.20;40.20
36690;DHT22;22676;51.120;3.702;2023-02-24T12:34:06;24.40;40.40
36690;DHT22;22676;51.120;3.702;2023-02-24T12:39:14;24.50;40.40
36690;DHT22;22676;51.120;3.702;2023-02-24T12:44:18;24.70;40.60
36690;DHT22;22676;51.120;3.702;2023-02-24T12:46:50;24.70;40.30
36690;DHT22;22676;51.120;3.702;2023-02-24T12:59:25;24.90;39.80
36690;DHT22;22676;51.120;3.702;2023-02-24T13:12:13;24.90;39.30
36690;DHT22;22676;51.120;3.702;2023-02-24T13:14:40;24.90;39.10
36690;DHT22;22676;51.120;3.702;2023-02-24T13:19:35;25.00;39.40
36690;DHT22;22676;51.120;3.702;2023-02-24T13:22:05;25.00;39.30
36690;DHT22;22676;51.120;3.702;2023-02-24T13:24:31;25.10;39.30
36690;DHT22;22676;51.120;3.702;2023-02-24T13:29:42;25.10;39.00
36690;DHT22;22676;51.120;3.702;2023-02-24T13:32:20;25.20;39.10
36690;DHT22;22676;51.120;3.702;2023-02-24T13:34:47;25.20;39.10
36690;DHT22;22676;51.120;3.702;2023-02-24T13:37:25;25.30;39.10
36690;DHT22;22676;51.120;3.702;2023-02-24T13:39:51;25.40;39.20
36690;DHT22;22676;51.120;3.702;2023-02-24T13:42:20;25.40;39.10
36690;DHT22;22676;51.120;3.702;2023-02-24T13:44:53;25.40;38.90
36690;DHT22;22676;51.120;3.702;2023-02-24T13:47:28;25.40;38.90
36690;DHT22;22676;51.120;3.702;2023-02-24T13:50:03;25.40;39.10
36690;DHT22;22676;51.120;3.702;2023-02-24T14:02:46;25.60;38.90
36690;DHT22;22676;51.120;3.702;2023-02-24T14:05:20;25.50;38.70
36690;DHT22;22676;51.120;3.702;2023-02-24T14:07:46;25.50;38.90
36690;DHT22;22676;51.120;3.702;2023-02-24T14:10:17;25.30;38.90
36690;DHT22;22676;51.120;3.702;2023-02-24T14:12:43;25.30;39.00
36690;DHT22;22676;51.120;3.702;2023-02-24T14:15:11;25.20;39.30
36690;DHT22;22676;51.120;3.702;2023-02-24T14:17:37;25.20;39.50
36690;DHT22;22676;51.120;3.702;2023-02-24T14:22:31;25.20;39.50
36690;DHT22;22676;51.120;3.702;2023-02-24T14:25:04;25.20;39.80
36690;DHT22;22676;51.120;3.702;2023-02-24T14:27:30;25.20;39.80
36690;DHT22;22676;51.120;3.702;2023-02-24T14:29:55;25.20;39.70
36690;DHT22;22676;51.120;3.702;2023-02-24T14:32:25;25.10;39.70
36690;DHT22;22676;51.120;3.702;2023-02-24T14:34:51;25.10;39.90
36690;DHT22;22676;51.120;3.702;2023-02-24T14:37:21;25.10;39.80
36690;DHT22;22676;51.120;3.702;2023-02-24T14:39:52;25.20;39.60
36690;DHT22;22676;51.120;3.702;2023-02-24T14:42:18;25.10;39.70
36690;DHT22;22676;51.120;3.702;2023-02-24T14:44:47;25.00;39.60
36690;DHT22;22676;51.120;3.702;2023-02-24T14:47:14;25.00;39.80
36690;DHT22;22676;51.120;3.702;2023-02-24T14:49:40;24.90;39.80
36690;DHT22;22676;51.120;3.702;2023-02-24T14:54:34;24.90;39.80
36690;DHT22;22676;51.120;3.702;2023-02-24T14:57:01;24.80;40.20
36690;DHT22;22676;51.120;3.702;2023-02-24T14:59:29;24.80;40.10
36690;DHT22;22676;51.120;3.702;2023-02-24T15:01:55;24.80;40.00
36690;DHT22;22676;51.120;3.702;2023-02-24T15:06:56;24.90;39.60
36690;DHT22;22676;51.120;3.702;2023-02-24T15:09:23;24.90;39.50
36690;DHT22;22676;51.120;3.702;2023-02-24T15:11:50;25.00;39.10
36690;DHT22;22676;51.120;3.702;2023-02-24T15:16:43;24.90;38.50
36690;DHT22;22676;51.120;3.702;2023-02-24T15:19:20;24.80;38.60
36690;DHT22;22676;51.120;3.702;2023-02-24T15:21:48;24.70;39.00
36690;DHT22;22676;51.120;3.702;2023-02-24T15:24:18;24.60;39.00
36690;DHT22;22676;51.120;3.702;2023-02-24T15:26:54;24.60;38.90
36690;DHT22;22676;51.120;3.702;2023-02-24T15:29:21;24.60;38.90
36690;DHT22;22676;51.120;3.702;2023-02-24T15:31:49;24.50;39.10
36690;DHT22;22676;51.120;3.702;2023-02-24T15:34:17;24.50;39.30
36690;DHT22;22676;51.120;3.702;2023-02-24T15:36:47;24.50;39.30
36690;DHT22;22676;51.120;3.702;2023-02-24T15:39:18;24.50;39.20
36690;DHT22;22676;51.120;3.702;2023-02-24T15:41:47;24.70;38.90
36690;DHT22;22676;51.120;3.702;2023-02-24T15:44:23;24.60;39.00
36690;DHT22;22676;51.120;3.702;2023-02-24T15:46:49;24.40;39.30
36690;DHT22;22676;51.120;3.702;2023-02-24T15:49:15;24.30;39.30
36690;DHT22;22676;51.120;3.702;2023-02-24T15:51:42;24.30;39.50
36690;DHT22;22676;51.120;3.702;2023-02-24T15:56:37;24.20;39.70
36690;DHT22;22676;51.120;3.702;2023-02-24T15:59:03;24.40;39.60
36690;DHT22;22676;51.120;3.702;2023-02-24T16:01:30;24.20;39.70
36690;DHT22;22676;51.120;3.702;2023-02-24T16:03:57;24.10;39.60
36690;DHT22;22676;51.120;3.702;2023-02-24T16:06:22;24.00;39.50
36690;DHT22;22676;51.120;3.702;2023-02-24T16:08:49;24.00;39.50
36690;DHT22;22676;51.120;3.702;2023-02-24T16:11:18;24.00;39.80
36690;DHT22;22676;51.120;3.702;2023-02-24T16:13:46;23.90;40.20
36690;DHT22;22676;51.120;3.702;2023-02-24T16:16:12;24.10;39.60
36690;DHT22;22676;51.120;3.702;2023-02-24T16:18:38;24.00;39.30
36690;DHT22;22676;51.120;3.702;2023-02-24T16:21:04;23.80;39.80
36690;DHT22;22676;51.120;3.702;2023-02-24T16:23:29;23.70;39.90
36690;DHT22;22676;51.120;3.702;2023-02-24T16:26:03;23.70;39.90
36690;DHT22;22676;51.120;3.702;2023-02-24T16:28:29;23.80;40.00
36690;DHT22;22676;51.120;3.702;2023-02-24T16:30:55;23.70;39.90
36690;DHT22;22676;51.120;3.702;2023-02-24T16:33:21;23.80;39.90
36690;DHT22;22676;51.120;3.702;2023-02-24T16:35:48;23.60;40.20
36690;DHT22;22676;51.120;3.702;2023-02-24T16:38:16;23.50;40.30
36690;DHT22;22676;51.120;3.702;2023-02-24T16:40:42;23.60;40.30
36690;DHT22;22676;51.120;3.702;2023-02-24T16:43:08;23.60;40.20
36690;DHT22;22676;51.120;3.702;2023-02-24T16:45:34;23.60;40.30
36690;DHT22;22676;51.120;3.702;2023-02-24T16:48:06;23.60;40.40
36690;DHT22;22676;51.120;3.702;2023-02-24T16:50:34;23.50;40.40
36690;DHT22;22676;51.120;3.702;2023-02-24T16:53:00;23.40;40.60
36690;DHT22;22676;51.120;3.702;2023-02-24T16:55:25;23.40;40.60
36690;DHT22;22676;51.120;3.702;2023-02-24T16:57:51;23.50;40.40
36690;DHT22;22676;51.120;3.702;2023-02-24T17:00:17;23.60;40.50
36690;DHT22;22676;51.120;3.702;2023-02-24T17:02:45;23.60;40.50
36690;DHT22;22676;51.120;3.702;2023-02-24T17:05:18;23.60;40.30
36690;DHT22;22676;51.120;3.702;2023-02-24T17:07:45;23.60;40.20
36690;DHT22;22676;51.120;3.702;2023-02-24T17:10:11;23.60;40.10
36690;DHT22;22676;51.120;3.702;2023-02-24T17:12:36;23.40;41.20
36690;DHT22;22676;51.120;3.702;2023-02-24T17:15:02;23.40;40.50
36690;DHT22;22676;51.120;3.702;2023-02-24T17:17:28;23.30;40.50
36690;DHT22;22676;51.120;3.702;2023-02-24T17:19:53;23.40;40.50
36690;DHT22;22676;51.120;3.702;2023-02-24T17:22:19;23.40;40.50
36690;DHT22;22676;51.120;3.702;2023-02-24T17:24:46;23.40;40.60
36690;DHT22;22676;51.120;3.702;2023-02-24T17:27:12;23.40;40.60
36690;DHT22;22676;51.120;3.702;2023-02-24T17:29:37;23.30;40.70
36690;DHT22;22676;51.120;3.702;2023-02-24T17:32:03;23.30;40.80
36690;DHT22;22676;51.120;3.702;2023-02-24T17:34:29;23.30;40.80
36690;DHT22;22676;51.120;3.702;2023-02-24T17:36:54;23.50;40.80
36690;DHT22;22676;51.120;3.702;2023-02-24T17:39:20;23.90;39.90
36690;DHT22;22676;51.120;3.702;2023-02-24T17:41:46;24.10;39.80
36690;DHT22;22676;51.120;3.702;2023-02-24T17:44:12;24.10;39.80
36690;DHT22;22676;51.120;3.702;2023-02-24T17:46:37;24.20;39.80
36690;DHT22;22676;51.120;3.702;2023-02-24T17:49:03;24.20;39.70
36690;DHT22;22676;51.120;3.702;2023-02-24T17:51:29;24.00;39.90
36690;DHT22;22676;51.120;3.702;2023-02-24T17:53:55;24.00;39.70
36690;DHT22;22676;51.120;3.702;2023-02-24T17:56:20;24.00;39.70
36690;DHT22;22676;51.120;3.702;2023-02-24T17:58:46;24.10;39.70
36690;DHT22;22676;51.120;3.702;2023-02-24T18:01:12;24.10;39.50
36690;DHT22;22676;51.120;3.702;2023-02-24T18:03:37;24.10;38.60